TDD weather

Teniente Av. Jorge Henrich Arauz Airport
Trinidad, El Beni Department, Bolivia

Public forecast

Using degrees Celsius for public forecast. Weather courtesy of forecast.io.

METAR (pilot weather report)

Report is more than 6 hours old.

Retrieved 2019/08/24 23:00 UTC (8 hours ago):

SLTR 242300Z 00000KT 5000 FU NSC 30/22 Q1011

TAF (pilot weather forecast)

Retrieved 2019/08/25 06:25 UTC (16 minutes ago):

TAF SLTR 250400Z 2506/2606 00000KT 5000 FU NSC TX34/2520Z TN20/2511Z BECMG 2512/2514 17009KT